Atlanta, Georgia
Traffic Map
Current Weather Conditions
Atlanta, Georgia
Broken Clouds
Broken Clouds
67°
Feels Like: 67°
Wind Chill: 67° Ceiling: 25000
Heat Index: 67° Visibility: 10mi
Dew Point: 39° Wind: 10mph
Humidity: 36% Direction: 320° (NW)
Pressure: 30.03in Gusts: 0mph
Raw Report DataKATL 232152Z 32009KT 10SM FEW200 BKN250 19/04 A3003 RMK AO2 SLP167 T01940039
Traffic Incident Summary
Active as of:
Severity:
Category:
InformationThere was an issue retrieving the traffic information for this location. Please try a different location or try again shortly.
Advertisements
Track Severe Weather on mobile